• Join FlightAware (Why Join?)
  • Login
  • US Flag 
11:30PM EDT


 

Airport Tracker/Info


-or-


 

Live Flight TrackerFlight Track Log ✈ FLG3429 ✈ 17-Jun-2013 ✈ KPSC - KMSP

Flight Track Log - Related Links

Times and Time Zones

All times are in EDT time to prevent confusion due to time zone crossing. See the FLG3429 flight status page for this flight to view local times or setup timezone preferences in your user account.

Time Position Orientation Groundspeed Altitude Reporting Facility
EDT Latitude Longitude Course Direction KTS MPH feet Rate Location/Type
04:17PM 46.2689 -119.2025 72° East 215 247 3,800  Level Seattle Center
04:18PM 46.3369 -119.1644 21° North 268 308 5,300 1,920 Climbing Seattle Center
04:19PM 46.4025 -119.0933 37° Northeast 293 337 7,800 2,400 Climbing Seattle Center
04:20PM 46.4717 -119.0217 36° Northeast 305 351 10,200 1,800 Climbing Seattle Center
04:21PM 46.4452 -118.2639 72° East  Level FlightAware Approximate
04:21PM 46.5006 -118.8897 72° East 343 395 11,500  Level Seattle Center
04:22PM 46.4836 -118.0919 72° East  Level FlightAware Approximate
04:22PM 46.5150 -118.7553 81° East 361 415 13,400  Level Seattle Center
04:23PM 46.5306 -118.6083 81° East 370 426 15,200 1,680 Climbing Seattle Center
04:24PM 46.5311 -118.4550 90° East 382 440 16,900 1,860 Climbing Seattle Center
04:25PM 46.5306 -118.2675 90° East 390 449 19,100 1,740 Climbing Seattle Center
04:26PM 46.5389 -118.1019 86° East 416 479 20,500 1,320 Climbing Seattle Center
04:27PM 46.5553 -117.9347 82° East 421 484 21,900 1,380 Climbing Seattle Center
04:28PM 46.5725 -117.7642 82° East 428 493 23,400 1,320 Climbing Seattle Center
04:29PM 46.5894 -117.5903 82° East 435 501 24,600 1,140 Climbing Seattle Center
04:30PM 46.6067 -117.4103 82° East 448 516 25,800 1,080 Climbing Seattle Center
04:31PM 46.6236 -117.2281 82° East 457 526 26,800 960 Climbing Seattle Center
04:32PM 46.6408 -117.0436 82° East 462 532 27,800 1,020 Climbing Seattle Center
04:33PM 46.6589 -116.8494 82° East 482 555 28,900 1,320 Climbing Seattle Center
04:34PM 46.6792 -116.6253 82° East 472 543 30,500 1,320 Climbing Seattle Center
04:35PM 46.6953 -116.4419 83° East 463 533 31,600 1,080 Climbing Seattle Center
04:36PM 46.7125 -116.2564 82° East 465 535 32,800 900 Climbing Seattle Center
04:37PM 46.7272 -116.0722 83° East 462 532 33,500 780 Climbing Seattle Center
04:38PM 46.7425 -115.8883 83° East 459 528 34,400 720 Climbing Seattle Center
04:39PM 46.7589 -115.7047 83° East 459 528 35,000 240 Climbing Seattle Center
04:40PM 46.7728 -115.5178 84° East 464 534 35,000  Level Seattle Center
04:40PM 46.7786 -115.4539 82° East 463 533 35,000  Level Salt Lake Center
04:41PM 46.7900 -115.3011 84° East 469 540 35,000  Level Seattle Center
04:42PM 46.8050 -115.1106 83° East 474 545 35,000  Level Seattle Center
04:42PM 46.8108 -115.0358 83° East 474 545 35,000  Level Salt Lake Center
04:44PM 46.8250 -114.8464 84° East 472 543 35,000  Level Salt Lake Center
04:45PM 46.8386 -114.6567 84° East 473 544 35,000  Level Salt Lake Center
04:46PM 46.8525 -114.4675 84° East 471 542 35,000  Level Salt Lake Center
04:47PM 46.8650 -114.2781 84° East 472 543 35,000  Level Salt Lake Center
04:48PM 46.8786 -114.0869 84° East 474 545 35,000  Level Salt Lake Center
04:49PM 46.9114 -113.8575 78° East 484 557 35,000  Level Salt Lake Center
04:50PM 46.9403 -113.6708 77° East 477 549 35,000  Level Salt Lake Center
04:51PM 46.9692 -113.4817 77° East 480 552 35,000  Level Salt Lake Center
04:52PM 47.0008 -113.2936 76° East 480 552 35,000  Level Salt Lake Center
04:53PM 47.0361 -113.1056 75° East 482 555 35,000  Level Salt Lake Center
04:54PM 47.0756 -112.8933 75° East 483 556 35,000  Level Salt Lake Center
04:55PM 47.1086 -112.7031 76° East 484 557 35,000  Level Salt Lake Center
04:56PM 47.1350 -112.5125 78° East 481 554 35,000  Level Salt Lake Center
04:57PM 47.1397 -112.3183 88° East 480 552 35,000  Level Salt Lake Center
04:58PM 47.1483 -112.0856 87° East 479 551 35,000  Level Salt Lake Center
04:59PM 47.1558 -111.8919 87° East 479 551 35,000  Level Salt Lake Center
05:00PM 47.1625 -111.6992 87° East 478 550 35,000  Level Salt Lake Center
05:01PM 47.1689 -111.5067 87° East 477 549 35,000  Level Salt Lake Center
05:02PM 47.1756 -111.3144 87° East 476 548 35,000  Level Salt Lake Center
05:03PM 47.1817 -111.1211 87° East 479 551 35,000  Level Salt Lake Center
05:04PM 47.1892 -110.8872 87° East 482 555 35,000  Level Salt Lake Center
05:05PM 47.1942 -110.6933 88° East 481 554 35,000  Level Salt Lake Center
05:06PM 47.2011 -110.4967 87° East 484 557 35,000  Level Salt Lake Center
05:07PM 47.2058 -110.2997 88° East 484 557 35,000  Level Salt Lake Center
05:08PM 47.2117 -110.1033 87° East 484 557 35,000  Level Salt Lake Center
05:09PM 47.2183 -109.9028 87° East 491 565 35,000  Level Salt Lake Center
05:10PM 47.2228 -109.6656 88° East 488 562 35,000  Level Salt Lake Center
05:11PM 47.2264 -109.4658 88° East 489 563 35,000  Level Salt Lake Center
05:12PM 47.2289 -109.2678 89° East 487 560 35,000  Level Salt Lake Center
05:13PM 47.2317 -109.0686 89° East 489 563 35,000  Level Salt Lake Center
05:14PM 47.2322 -108.8714 90° East 485 558 35,000  Level Salt Lake Center
05:15PM 47.2344 -108.6722 89° East 489 563 35,000  Level Salt Lake Center
05:16PM 47.2389 -108.4328 88° East 491 565 35,000  Level Salt Lake Center
05:17PM 47.2394 -108.2278 90° East 487 560 35,000  Level Salt Lake Center
05:19PM 47.2419 -108.0356 89° East 490 564 35,000  Level Salt Lake Center
05:20PM 47.2422 -107.8117 90° East 489 563 35,000  Level Salt Lake Center
05:21PM 47.2431 -107.6203 90° East 489 563 35,000  Level Salt Lake Center
05:22PM 47.2428 -107.4289 90° East 488 562 35,000  Level Salt Lake Center
05:23PM 47.2433 -107.2053 90° East 489 563 35,000  Level Salt Lake Center
05:24PM 47.2425 -107.0133 90° East 489 563 35,000  Level Salt Lake Center
05:25PM 47.2417 -106.7886 90° East 492 566 35,000  Level Salt Lake Center
05:26PM 47.2397 -106.5972 91° East 489 563 35,000  Level Salt Lake Center
05:27PM 47.2389 -106.3733 90° East 490 564 35,000  Level Salt Lake Center
05:28PM 47.2356 -106.1753 91° East 490 564 35,000  Level Salt Lake Center
05:29PM 47.2331 -105.9747 91° East 492 566 35,000  Level Salt Lake Center
05:30PM 47.2303 -105.7739 91° East 493 567 35,000 300 Level Salt Lake Center
05:31PM 47.2261 -105.5756 92° East 490 564 35,700 540 Climbing Salt Lake Center
05:32PM 47.2186 -105.3761 93° East 489 563 36,200 480 Climbing Salt Lake Center
05:33PM 47.1878 -105.1381 101° East 494 568 36,800 360 Climbing Salt Lake Center
05:34PM 47.1617 -104.9394 101° East 497 572 37,000 60 Climbing Salt Lake Center
05:35PM 47.1344 -104.7408 101° East 499 574 37,000  Level Salt Lake Center
05:36PM 47.1083 -104.5458 101° East 495 570 37,000  Level Salt Lake Center
05:37PM 47.0825 -104.3531 101° East 490 564 37,000  Level Salt Lake Center
05:38PM 47.0567 -104.1628 101° East 485 558 37,000  Level Salt Lake Center
05:39PM 47.0278 -103.9311 100° East 485 558 37,000  Level Salt Lake Center
05:40PM 47.0028 -103.7389 101° East 485 558 37,000  Level Salt Lake Center
05:41PM 46.9867 -103.5889 99° East 479 551 37,000  Level Minneapolis Center
05:42PM 46.9636 -103.3961 100° East 483 556 37,000  Level Minneapolis Center
05:43PM 46.9411 -103.2042 100° East 483 556 37,000  Level Minneapolis Center
05:44PM 46.9194 -103.0117 99° East 484 557 37,000  Level Minneapolis Center
05:45PM 46.8997 -102.8194 98° East 482 555 37,000  Level Minneapolis Center
05:46PM 46.8828 -102.6247 97° East 484 557 37,000  Level Minneapolis Center
05:47PM 46.8603 -102.3964 98° East 479 551 37,000  Level Minneapolis Center
05:48PM 46.8444 -102.2006 97° East 484 557 37,000 -60 Level Minneapolis Center
05:49PM 46.8247 -102.0083 98° East 484 557 36,900  Descending Minneapolis Center
05:50PM 46.8067 -101.8125 98° East 486 559 37,000  Climbing Minneapolis Center
05:51PM 46.7864 -101.5986 98° East 490 564 37,000  Level Minneapolis Center
05:52PM 46.7672 -101.4011 98° East 490 564 37,000  Level Minneapolis Center
05:53PM 46.7483 -101.2042 98° East 491 565 37,000  Level Minneapolis Center
05:54PM 46.7289 -101.0044 98° East 494 568 37,000  Level Minneapolis Center
05:55PM 46.7094 -100.8089 98° East 490 564 37,000  Level Minneapolis Center
05:56PM 46.6853 -100.5750 98° East 487 560 37,000  Level Minneapolis Center
05:57PM 46.6650 -100.3789 98° East 488 562 37,000  Level Minneapolis Center
05:58PM 46.6431 -100.1831 99° East 489 563 37,000  Level Minneapolis Center
05:59PM 46.6219 -99.9817 99° East 489 563 37,000  Level Minneapolis Center
06:00PM 46.5997 -99.7883 99° East 488 562 37,000  Level Minneapolis Center
06:02PM 46.5781 -99.5953 99° East 487 560 37,000  Level Minneapolis Center
06:03PM 46.5558 -99.4053 100° East 486 559 37,000  Level Minneapolis Center
06:04PM 46.5394 -99.2503 99° East 483 556 37,000  Level Minneapolis Center
06:05PM 46.5117 -99.0139 100° East 489 563 37,000  Level Minneapolis Center
06:06PM 46.4836 -98.7800 100° East 492 566 37,000  Level Minneapolis Center
06:07PM 46.4600 -98.5858 100° East 492 566 37,000  Level Minneapolis Center
06:08PM 46.4356 -98.3933 100° East 492 566 37,000  Level Minneapolis Center
06:09PM 46.4125 -98.2014 100° East 489 563 37,000  Level Minneapolis Center
06:10PM 46.3872 -98.0086 101° East 490 564 37,000  Level Minneapolis Center
06:11PM 46.3625 -97.8206 101° East 481 554 37,000  Level Minneapolis Center
06:12PM 46.3333 -97.5983 101° East 472 543 37,000  Level Minneapolis Center
06:13PM 46.3089 -97.4153 101° East 467 537 37,000  Level Minneapolis Center
06:14PM 46.2842 -97.2344 101° East 462 532 37,000  Level Minneapolis Center
06:15PM 46.2594 -97.0542 101° East 460 529 37,000  Level Minneapolis Center
06:16PM 46.2356 -96.8731 101° East 462 532 37,000  Level Minneapolis Center
06:17PM 46.2106 -96.6931 101° East 462 532 37,000  Level Minneapolis Center
06:18PM 46.1800 -96.4733 101° East 465 535 37,000  Level Minneapolis Center
06:19PM 46.1517 -96.2897 102° East 468 539 37,000  Level Minneapolis Center
06:20PM 46.1250 -96.1011 101° East 475 547 37,000  Level Minneapolis Center
06:21PM 46.0978 -95.9167 102° East 474 545 37,000  Level Minneapolis Center
06:22PM 46.0703 -95.7314 102° East 474 545 37,000 -60 Level Minneapolis Center
06:23PM 46.0414 -95.5469 103° East 474 545 36,900 -960 Descending Minneapolis Center
06:24PM 45.9950 -95.3692 111° Southeast 474 545 35,100 -1,980 Descending Minneapolis Center
06:25PM 45.9406 -95.1550 110° East 474 545 32,900 -1,800 Descending Minneapolis Center
06:26PM 45.9022 -95.0042 110° East 468 539 31,400 -1,800 Descending Minneapolis Center
06:27PM 45.8489 -94.7919 110° East 470 541 29,200 -1,800 Descending Minneapolis Center
06:28PM 45.8139 -94.6475 109° East 476 548 27,800 -1,800 Descending Minneapolis Center
06:29PM 45.7600 -94.4311 110° East 480 552 25,600 -1,920 Descending Minneapolis Center
06:30PM 45.7122 -94.2597 112° Southeast 475 547 23,800 -1,800 Descending Minneapolis Center
06:31PM 45.6692 -94.0936 110° East 456 525 22,000 -1,800 Descending Minneapolis Center
06:32PM 45.6272 -93.9367 111° Southeast 430 495 20,200 -1,800 Descending Minneapolis Center
06:33PM 45.5867 -93.7828 111° Southeast 418 481 18,400 -1,980 Descending Minneapolis Center
06:34PM 45.5339 -93.6025 113° Southeast 411 473 16,200 -1,980 Descending Minneapolis Center
06:36PM 45.4372 -93.5314 153° Southeast 393 452 14,400 -1,740 Descending Minneapolis Center
06:37PM 45.3344 -93.4767 159° South 393 452 12,700 -1,440 Descending Minneapolis Center
06:38PM 45.2358 -93.4242 159° South 379 436 11,500 -1,080 Descending Minneapolis Center
06:39PM 45.1431 -93.3753 160° South 357 411 10,500 -1,080 Descending Minneapolis Center
06:40PM 45.0622 -93.3317 159° South 313 360 9,300 -1,260 Descending Minneapolis Center
06:41PM 44.9897 -93.2492 141° Southeast 293 337 8,000 -1,380 Descending Minneapolis Center
06:42PM 44.9489 -93.1511 120° Southeast 287 330 6,500 -1,620 Descending Minneapolis Center
06:43PM 44.9106 -93.0531 119° Southeast 283 326 4,800 -1,260 Descending Minneapolis Center
06:44PM 44.8542 -93.0078 150° Southeast 252 290 4,000 -780 Descending Minneapolis Center